createdAt,value
2017-09-24T00:00:07.644Z,27.27
2017-09-24T00:02:35.085Z,28.40
2017-09-24T00:05:02.571Z,26.92
2017-09-24T00:07:30.024Z,26.87
2017-09-24T00:09:57.486Z,28.12
2017-09-24T00:12:24.935Z,25.42
2017-09-24T00:14:52.414Z,27.45
2017-09-24T00:17:19.866Z,26.80
2017-09-24T00:19:47.349Z,26.95
2017-09-24T00:22:14.802Z,26.17
2017-09-24T00:24:42.266Z,25.45
2017-09-24T00:27:09.714Z,25.77
2017-09-24T00:29:37.173Z,26.73
2017-09-24T00:32:05.393Z,25.20
2017-09-24T00:34:32.855Z,27.13
2017-09-24T00:37:00.308Z,25.65
2017-09-24T00:39:27.755Z,27.73
2017-09-24T00:41:55.215Z,25.12
2017-09-24T00:44:22.666Z,26.58
2017-09-24T00:46:50.120Z,27.65
2017-09-24T00:49:17.581Z,27.90
2017-09-24T00:51:45.037Z,28.83
2017-09-24T00:54:12.502Z,28.45
2017-09-24T00:56:39.974Z,28.75
2017-09-24T00:59:07.421Z,27.62
2017-09-24T01:01:34.882Z,27.23
2017-09-24T01:04:02.339Z,29.85
2017-09-24T01:06:29.790Z,27.83
2017-09-24T01:08:57.251Z,29.45
2017-09-24T01:11:24.701Z,27.37
2017-09-24T01:13:52.151Z,28.25
2017-09-24T01:16:20.365Z,26.33
2017-09-24T01:18:47.818Z,24.42
2017-09-24T01:21:15.270Z,24.87
2017-09-24T01:23:42.713Z,26.70
2017-09-24T01:26:10.486Z,26.87
2017-09-24T01:28:37.942Z,25.40
2017-09-24T01:31:05.400Z,26.83
2017-09-24T01:33:32.869Z,27.37
2017-09-24T01:36:00.324Z,28.27
2017-09-24T01:38:27.767Z,25.95
2017-09-24T01:40:55.221Z,25.40
2017-09-24T01:43:22.691Z,28.10
2017-09-24T01:45:50.142Z,26.65
2017-09-24T01:48:17.601Z,27.25
2017-09-24T01:50:45.047Z,26.37
2017-09-24T01:53:12.504Z,25.35
2017-09-24T01:55:39.955Z,25.58
2017-09-24T01:58:07.411Z,25.23
2017-09-24T02:00:34.870Z,27.02
2017-09-24T02:03:02.326Z,26.27
2017-09-24T02:05:29.778Z,27.37
2017-09-24T02:07:57.242Z,26.52
2017-09-24T02:10:24.691Z,26.30
2017-09-24T02:12:52.146Z,25.27
2017-09-24T02:15:19.594Z,26.30
2017-09-24T02:17:47.046Z,27.73
2017-09-24T02:20:14.503Z,29.45
2017-09-24T02:22:41.950Z,26.58
2017-09-24T02:25:09.410Z,27.08
2017-09-24T02:27:36.918Z,28.20
2017-09-24T02:30:04.354Z,25.40
2017-09-24T02:32:31.806Z,24.42
2017-09-24T02:34:59.268Z,25.85
2017-09-24T02:37:26.719Z,27.80
2017-09-24T02:39:54.172Z,26.65
2017-09-24T02:42:21.646Z,27.40
2017-09-24T02:44:49.098Z,27.73
2017-09-24T02:47:16.550Z,25.90
2017-09-24T02:49:44.002Z,28.05
2017-09-24T02:52:11.458Z,27.58
2017-09-24T02:54:38.908Z,27.65
2017-09-24T02:57:06.374Z,25.35
2017-09-24T02:59:33.831Z,26.50
2017-09-24T03:02:01.299Z,25.23
2017-09-24T03:04:28.743Z,27.45
2017-09-24T03:06:56.210Z,26.55
2017-09-24T03:09:23.662Z,28.08
2017-09-24T03:11:51.114Z,26.70
2017-09-24T03:14:18.573Z,26.98
2017-09-24T03:16:46.048Z,29.05
2017-09-24T03:19:13.523Z,27.37
2017-09-24T03:21:41.754Z,29.45
2017-09-24T03:24:09.214Z,29.65
2017-09-24T03:26:36.703Z,29.45
2017-09-24T03:29:04.941Z,30.25
2017-09-24T03:31:32.414Z,30.02
2017-09-24T03:33:59.885Z,30.35
2017-09-24T03:36:27.359Z,32.72
2017-09-24T03:38:54.837Z,30.83
2017-09-24T03:41:22.287Z,28.65
2017-09-24T03:43:49.738Z,32.05
2017-09-24T03:46:17.185Z,33.17
2017-09-24T03:48:45.405Z,32.22
2017-09-24T03:51:12.865Z,30.88
2017-09-24T03:53:40.325Z,30.42
2017-09-24T03:56:07.785Z,30.35
2017-09-24T03:58:35.250Z,31.87
2017-09-24T04:01:02.742Z,31.23
2017-09-24T04:03:30.980Z,31.33
2017-09-24T04:05:58.475Z,32.40
2017-09-24T04:08:25.929Z,31.25
2017-09-24T04:10:53.406Z,31.80
2017-09-24T04:13:20.986Z,30.08
2017-09-24T04:15:48.452Z,30.12
2017-09-24T04:18:15.945Z,31.02
2017-09-24T04:20:43.413Z,30.10
2017-09-24T04:23:10.875Z,28.70
2017-09-24T04:25:39.120Z,31.58
2017-09-24T04:28:06.569Z,30.50
2017-09-24T04:30:34.011Z,30.12
2017-09-24T04:33:01.478Z,31.50
2017-09-24T04:35:28.979Z,32.30
2017-09-24T04:37:57.210Z,29.98
2017-09-24T04:40:24.688Z,31.52
2017-09-24T04:42:52.162Z,31.95
2017-09-24T04:45:20.390Z,30.40
2017-09-24T04:47:47.861Z,33.33
2017-09-24T04:50:15.314Z,32.25
2017-09-24T04:52:42.787Z,28.95
2017-09-24T04:55:10.238Z,28.40
2017-09-24T04:57:37.693Z,31.60
2017-09-24T05:00:05.173Z,29.30
2017-09-24T05:02:32.630Z,30.35
2017-09-24T05:05:00.100Z,30.12
2017-09-24T05:07:28.369Z,28.58
2017-09-24T05:09:56.201Z,29.17
2017-09-24T05:12:23.673Z,30.50
2017-09-24T05:14:51.156Z,28.17
2017-09-24T05:17:18.627Z,30.17
2017-09-24T05:19:46.078Z,27.25
2017-09-24T05:22:14.298Z,28.83
2017-09-24T05:24:41.749Z,28.87
2017-09-24T05:27:09.580Z,28.33
2017-09-24T05:29:37.031Z,26.62
2017-09-24T05:32:04.501Z,26.60
2017-09-24T05:34:31.955Z,26.17
2017-09-24T05:36:59.414Z,28.12
2017-09-24T05:39:26.938Z,26.75
2017-09-24T05:41:54.395Z,25.23
2017-09-24T05:44:21.861Z,26.75
2017-09-24T05:46:50.095Z,26.90
2017-09-24T05:49:17.603Z,26.10
2017-09-24T05:51:45.071Z,28.00
2017-09-24T05:54:12.526Z,27.98
2017-09-24T05:56:39.986Z,25.52
2017-09-24T05:59:07.450Z,25.42
2017-09-24T06:01:34.902Z,28.48
2017-09-24T06:04:02.445Z,25.08
2017-09-24T06:06:30.502Z,26.85
2017-09-24T06:08:57.969Z,23.35
2017-09-24T06:11:25.448Z,25.12
2017-09-24T06:13:52.912Z,26.33
2017-09-24T06:16:20.814Z,25.35
2017-09-24T06:18:48.277Z,23.92
2017-09-24T06:21:20.451Z,24.60
2017-09-24T06:23:47.936Z,23.98
2017-09-24T06:26:15.403Z,24.58
2017-09-24T06:28:42.868Z,23.55
2017-09-24T06:31:10.311Z,22.00
2017-09-24T06:33:37.765Z,22.23
2017-09-24T06:36:05.226Z,23.75
2017-09-24T06:38:32.763Z,24.23
2017-09-24T06:41:00.231Z,25.35
2017-09-24T06:43:28.459Z,21.70
2017-09-24T06:45:56.319Z,24.77
2017-09-24T06:48:36.272Z,24.77
2017-09-24T06:51:03.770Z,22.58
2017-09-24T06:53:31.230Z,21.62
2017-09-24T06:55:59.707Z,21.75
2017-09-24T06:58:27.966Z,23.25
2017-09-24T07:00:55.418Z,21.42
2017-09-24T07:03:22.924Z,21.20
2017-09-24T07:05:50.377Z,22.17
2017-09-24T07:08:17.887Z,22.42
2017-09-24T07:10:45.350Z,21.73
2017-09-24T07:13:12.835Z,22.48
2017-09-24T07:15:41.062Z,19.90
2017-09-24T07:18:08.538Z,20.23
2017-09-24T07:20:36.042Z,20.55
2017-09-24T07:23:03.494Z,19.42
2017-09-24T07:25:30.942Z,20.05
2017-09-24T07:27:59.210Z,20.15
2017-09-24T07:30:27.444Z,19.42
2017-09-24T07:32:55.094Z,20.73
2017-09-24T07:35:23.270Z,19.55
2017-09-24T07:37:50.743Z,17.77
2017-09-24T07:40:18.235Z,17.60
2017-09-24T07:42:45.711Z,18.23
2017-09-24T07:45:13.166Z,18.17
2017-09-24T07:47:40.618Z,18.35
2017-09-24T07:50:08.091Z,17.80
2017-09-24T07:52:35.577Z,16.98
2017-09-24T07:55:03.042Z,17.17
2017-09-24T07:57:30.504Z,16.80
2017-09-24T07:59:57.993Z,14.27
2017-09-24T08:02:26.232Z,16.75
2017-09-24T08:04:53.730Z,14.55
2017-09-24T08:07:21.999Z,15.18
2017-09-24T08:09:50.279Z,16.40
2017-09-24T08:12:17.747Z,15.88
2017-09-24T08:14:45.832Z,16.40
2017-09-24T08:17:13.288Z,16.15
2017-09-24T08:19:40.776Z,16.77
2017-09-24T08:22:08.250Z,15.95
2017-09-24T08:24:35.799Z,15.57
2017-09-24T08:27:03.298Z,15.05
2017-09-24T08:29:30.763Z,16.55
2017-09-24T08:31:58.218Z,14.00
2017-09-24T08:34:25.782Z,14.93
2017-09-24T08:36:53.275Z,15.07
2017-09-24T08:39:20.742Z,14.98
2017-09-24T08:41:48.251Z,15.82
2017-09-24T08:44:15.714Z,15.07
2017-09-24T08:46:43.204Z,15.05
2017-09-24T08:49:10.776Z,16.08
2017-09-24T08:51:38.254Z,16.60
2017-09-24T08:54:05.747Z,16.90
2017-09-24T08:56:33.286Z,17.30
2017-09-24T08:59:01.563Z,15.77
2017-09-24T09:01:29.098Z,15.27
2017-09-24T09:03:56.582Z,16.40
2017-09-24T09:06:24.887Z,15.13
2017-09-24T09:08:52.386Z,16.23
2017-09-24T09:11:19.892Z,15.30
2017-09-24T09:13:47.441Z,15.13
2017-09-24T09:16:14.971Z,14.35
2017-09-24T09:18:42.438Z,15.95
2017-09-24T09:21:10.691Z,16.35
2017-09-24T09:23:38.174Z,18.30
2017-09-24T09:26:05.662Z,16.37
2017-09-24T09:28:33.150Z,16.70
2017-09-24T09:31:00.629Z,15.73
2017-09-24T09:33:28.104Z,16.02
2017-09-24T09:35:56.369Z,16.23
2017-09-24T09:38:25.030Z,16.62
2017-09-24T09:40:52.536Z,15.77
2017-09-24T09:43:31.674Z,16.65
2017-09-24T09:46:00.132Z,16.70
2017-09-24T09:48:27.593Z,16.77
2017-09-24T09:50:55.848Z,17.35
2017-09-24T09:53:23.309Z,15.43
2017-09-24T09:55:50.793Z,16.87
2017-09-24T09:58:18.266Z,17.75
2017-09-24T10:00:45.799Z,18.40
2017-09-24T10:03:14.025Z,19.23
2017-09-24T10:05:41.491Z,18.40
2017-09-24T10:08:21.635Z,18.85
2017-09-24T10:10:49.101Z,18.30
2017-09-24T10:13:16.549Z,17.50
2017-09-24T10:15:44.031Z,17.12
2017-09-24T10:18:11.502Z,16.67
2017-09-24T10:20:39.754Z,17.35
2017-09-24T10:23:07.230Z,17.83
2017-09-24T10:25:34.718Z,17.08
2017-09-24T10:28:02.196Z,17.75
2017-09-24T10:30:41.355Z,17.42
2017-09-24T10:33:08.826Z,17.30
2017-09-24T10:35:36.517Z,17.23
2017-09-24T10:38:03.975Z,16.23
2017-09-24T10:40:31.491Z,17.98
2017-09-24T10:42:58.987Z,17.83
2017-09-24T10:45:26.466Z,19.73
2017-09-24T10:47:53.957Z,16.25
2017-09-24T10:50:21.404Z,16.12
2017-09-24T10:52:48.873Z,17.83
2017-09-24T10:55:16.354Z,15.07
2017-09-24T10:57:43.834Z,16.23
2017-09-24T11:00:11.464Z,16.10
2017-09-24T11:02:39.014Z,17.15
2017-09-24T11:05:06.567Z,16.58
2017-09-24T11:07:34.344Z,16.17
2017-09-24T11:10:01.887Z,15.98
2017-09-24T11:12:29.383Z,15.95
2017-09-24T11:14:56.952Z,18.80
2017-09-24T11:17:24.467Z,17.30
2017-09-24T11:19:52.707Z,16.27
2017-09-24T11:22:20.196Z,17.45
2017-09-24T11:24:47.698Z,17.25
2017-09-24T11:27:15.166Z,16.60
2017-09-24T11:29:42.669Z,16.60
2017-09-24T11:32:10.150Z,16.00
2017-09-24T11:34:37.640Z,17.70
2017-09-24T11:37:05.151Z,18.12
2017-09-24T11:39:32.649Z,16.10
2017-09-24T11:42:00.201Z,15.90
2017-09-24T11:44:27.671Z,17.85
2017-09-24T11:46:55.126Z,17.67
2017-09-24T11:49:22.659Z,16.92
2017-09-24T11:51:50.913Z,18.05
2017-09-24T11:54:18.426Z,18.92
2017-09-24T11:56:45.936Z,18.45
2017-09-24T11:59:13.417Z,16.65
2017-09-24T12:01:41.695Z,16.37
2017-09-24T12:04:09.276Z,17.75
2017-09-24T12:06:36.731Z,16.62
2017-09-24T12:09:04.227Z,18.83
2017-09-24T12:11:31.727Z,17.95
2017-09-24T12:13:59.304Z,17.85
2017-09-24T12:16:26.810Z,16.85
2017-09-24T12:18:54.315Z,17.20
2017-09-24T12:21:21.780Z,20.67
2017-09-24T12:23:49.287Z,19.50
2017-09-24T12:26:16.789Z,17.27
2017-09-24T12:28:44.329Z,16.98
2017-09-24T12:31:11.806Z,19.08
2017-09-24T12:33:39.336Z,18.55
2017-09-24T12:36:07.645Z,17.77
2017-09-24T12:38:35.198Z,20.88
2017-09-24T12:41:02.830Z,20.83
2017-09-24T12:43:30.399Z,20.77
2017-09-24T12:45:58.017Z,21.27
2017-09-24T12:48:25.635Z,19.17
2017-09-24T12:50:53.277Z,21.30
2017-09-24T12:53:20.881Z,21.85
2017-09-24T12:55:48.534Z,21.90
2017-09-24T12:58:16.192Z,21.37
2017-09-24T13:00:43.767Z,20.15
2017-09-24T13:03:11.290Z,23.55
2017-09-24T13:05:38.863Z,24.30
2017-09-24T13:08:06.464Z,21.15
2017-09-24T13:10:33.978Z,23.20
2017-09-24T13:13:01.705Z,20.15
2017-09-24T13:15:29.738Z,21.40
2017-09-24T13:17:57.267Z,23.03
2017-09-24T13:20:24.758Z,23.55
2017-09-24T13:22:52.381Z,21.73
2017-09-24T13:25:19.950Z,23.45
2017-09-24T13:27:47.517Z,23.25
2017-09-24T13:30:15.166Z,23.30
2017-09-24T13:32:42.811Z,21.67
2017-09-24T13:35:10.500Z,21.40
2017-09-24T13:37:38.217Z,21.10
2017-09-24T13:40:05.823Z,21.97
2017-09-24T13:42:33.313Z,21.80
2017-09-24T13:45:00.820Z,20.42
2017-09-24T13:47:29.083Z,20.37
2017-09-24T13:49:57.367Z,19.90
2017-09-24T13:52:24.911Z,17.50
2017-09-24T13:54:52.382Z,21.80
2017-09-24T13:57:20.637Z,19.07
2017-09-24T13:59:48.121Z,20.67
2017-09-24T14:02:16.339Z,20.10
2017-09-24T14:04:43.837Z,18.47
2017-09-24T14:07:11.313Z,18.37
2017-09-24T14:09:39.602Z,20.63
2017-09-24T14:12:07.099Z,19.23
2017-09-24T14:14:34.588Z,19.53
2017-09-24T14:17:02.072Z,18.30
2017-09-24T14:19:29.543Z,20.33
2017-09-24T14:21:57.047Z,19.40
2017-09-24T14:24:24.527Z,19.00
2017-09-24T14:26:52.022Z,18.37
2017-09-24T14:29:19.514Z,18.30
2017-09-24T14:31:46.987Z,19.70
2017-09-24T14:34:14.552Z,19.50
2017-09-24T14:36:42.042Z,20.87
2017-09-24T14:39:09.529Z,20.57
2017-09-24T14:41:37.002Z,19.97
2017-09-24T14:44:04.482Z,20.90
2017-09-24T14:46:32.122Z,21.40
2017-09-24T14:48:59.651Z,22.33
2017-09-24T14:51:27.121Z,21.00
2017-09-24T14:53:54.596Z,21.60
2017-09-24T14:56:22.070Z,23.30
2017-09-24T14:58:50.319Z,20.27
2017-09-24T15:01:17.806Z,21.50
2017-09-24T15:03:46.097Z,23.50
2017-09-24T15:06:13.556Z,21.70
2017-09-24T15:08:41.022Z,22.17
2017-09-24T15:11:08.505Z,20.13
2017-09-24T15:13:36.140Z,21.33
2017-09-24T15:16:03.659Z,21.20
2017-09-24T15:18:31.181Z,20.02
2017-09-24T15:20:58.697Z,21.12
2017-09-24T15:23:26.155Z,23.10
2017-09-24T15:25:54.420Z,21.43
2017-09-24T15:28:21.897Z,21.33
2017-09-24T15:30:49.396Z,24.20
2017-09-24T15:33:16.906Z,21.67
2017-09-24T15:35:44.426Z,21.73
2017-09-24T15:38:11.928Z,22.00
2017-09-24T15:40:39.419Z,23.52
2017-09-24T15:43:07.082Z,23.30
2017-09-24T15:45:34.551Z,23.60
2017-09-24T15:48:02.063Z,24.53
2017-09-24T15:50:30.312Z,23.87
2017-09-24T15:52:57.804Z,22.93
2017-09-24T15:55:25.282Z,22.57
2017-09-24T15:57:52.751Z,22.47
2017-09-24T16:00:20.227Z,25.30
2017-09-24T16:02:47.690Z,26.20
2017-09-24T16:05:15.161Z,26.57
2017-09-24T16:07:43.406Z,26.48
2017-09-24T16:10:10.890Z,23.38
2017-09-24T16:12:38.372Z,27.73
2017-09-24T16:15:05.869Z,25.63
2017-09-24T16:17:33.381Z,26.20
2017-09-24T16:20:00.884Z,25.77
2017-09-24T16:22:28.355Z,26.40
2017-09-24T16:24:55.827Z,25.83
2017-09-24T16:27:23.298Z,24.65
2017-09-24T16:29:51.538Z,27.55
2017-09-24T16:32:19.020Z,28.50
2017-09-24T16:34:46.514Z,26.37
2017-09-24T16:37:13.982Z,27.45
2017-09-24T16:39:41.482Z,27.45
2017-09-24T16:42:08.973Z,25.77
2017-09-24T16:44:36.455Z,26.10
2017-09-24T16:47:03.922Z,24.65
2017-09-24T16:49:31.426Z,28.10
2017-09-24T16:51:59.677Z,28.53
2017-09-24T16:54:27.157Z,26.35
2017-09-24T16:56:54.643Z,25.95
2017-09-24T16:59:22.106Z,27.42
2017-09-24T17:01:49.608Z,26.67
2017-09-24T17:04:17.102Z,26.90
2017-09-24T17:06:45.366Z,27.90
2017-09-24T17:09:12.902Z,29.02
2017-09-24T17:11:40.410Z,28.75
2017-09-24T17:14:07.867Z,29.92
2017-09-24T17:16:35.481Z,28.75
2017-09-24T17:19:02.975Z,33.08
2017-09-24T17:21:30.446Z,28.83
2017-09-24T17:23:57.975Z,27.80
2017-09-24T17:26:25.464Z,30.23
2017-09-24T17:28:52.963Z,29.90
2017-09-24T17:31:20.446Z,28.02
2017-09-24T17:33:47.917Z,31.12
2017-09-24T17:36:15.458Z,33.83
2017-09-24T17:38:42.988Z,32.40
2017-09-24T17:41:10.487Z,33.97
2017-09-24T17:43:37.974Z,32.10
2017-09-24T17:46:05.503Z,33.58
2017-09-24T17:48:32.970Z,33.05
2017-09-24T17:51:00.716Z,34.13
2017-09-24T17:53:28.194Z,34.70
2017-09-24T17:55:55.746Z,34.30
2017-09-24T17:58:23.227Z,33.65
2017-09-24T18:00:50.766Z,34.88
2017-09-24T18:03:19.027Z,32.15
2017-09-24T18:05:46.495Z,33.95
2017-09-24T18:08:13.942Z,33.40
2017-09-24T18:10:42.233Z,35.72
2017-09-24T18:13:09.690Z,32.30
2017-09-24T18:15:37.164Z,32.58
2017-09-24T18:18:04.685Z,33.67
2017-09-24T18:20:32.165Z,33.55
2017-09-24T18:22:59.635Z,33.90
2017-09-24T18:25:28.850Z,36.80
2017-09-24T18:27:56.459Z,37.65
2017-09-24T18:30:24.026Z,36.38
2017-09-24T18:32:51.490Z,36.05
2017-09-24T18:35:19.745Z,34.20
2017-09-24T18:37:47.206Z,36.67
2017-09-24T18:40:14.660Z,36.58
2017-09-24T18:42:42.124Z,35.95
2017-09-24T18:45:09.602Z,36.55
2017-09-24T18:47:37.269Z,38.05
2017-09-24T18:50:04.985Z,34.67
2017-09-24T18:52:32.464Z,37.13
2017-09-24T18:54:59.922Z,36.72
2017-09-24T18:57:27.400Z,34.78
2017-09-24T19:00:01.622Z,39.50
2017-09-24T19:02:29.162Z,37.38
2017-09-24T19:04:56.706Z,38.17
2017-09-24T19:07:24.954Z,35.00
2017-09-24T19:09:52.443Z,36.13
2017-09-24T19:12:19.903Z,36.92
2017-09-24T19:14:47.661Z,35.90
2017-09-24T19:17:15.141Z,34.72
2017-09-24T19:19:43.385Z,36.67
2017-09-24T19:22:10.911Z,35.67
2017-09-24T19:24:38.545Z,36.20
2017-09-24T19:27:06.027Z,36.50
2017-09-24T19:29:33.550Z,35.80
2017-09-24T19:32:01.415Z,34.40
2017-09-24T19:34:28.935Z,35.08
2017-09-24T19:36:56.411Z,35.05
2017-09-24T19:39:23.902Z,32.90
2017-09-24T19:41:51.354Z,36.50
2017-09-24T19:44:19.027Z,33.33
2017-09-24T19:46:46.676Z,32.17
2017-09-24T19:49:14.406Z,34.85
2017-09-24T19:51:41.871Z,34.75
2017-09-24T19:54:09.317Z,33.95
2017-09-24T19:56:36.794Z,34.90
2017-09-24T19:59:04.246Z,33.67
2017-09-24T20:01:32.526Z,33.50
2017-09-24T20:04:00.787Z,35.47
2017-09-24T20:06:28.263Z,33.90
2017-09-24T20:08:55.768Z,34.55
2017-09-24T20:11:23.270Z,33.75
2017-09-24T20:13:51.518Z,38.35
2017-09-24T20:16:19.100Z,32.67
2017-09-24T20:18:47.651Z,36.22
2017-09-24T20:21:15.164Z,38.03
2017-09-24T20:23:42.683Z,38.15
2017-09-24T20:26:10.175Z,39.00
2017-09-24T20:28:37.643Z,36.20
2017-09-24T20:31:05.545Z,37.80
2017-09-24T20:33:33.108Z,34.40
2017-09-24T20:36:00.591Z,38.63
2017-09-24T20:38:28.538Z,33.95
2017-09-24T20:40:56.058Z,37.03
2017-09-24T20:43:23.511Z,36.25
2017-09-24T20:45:51.066Z,41.22
2017-09-24T20:48:18.518Z,35.55
2017-09-24T20:50:46.144Z,35.60
2017-09-24T20:53:13.607Z,37.22
2017-09-24T20:55:43.138Z,41.22
2017-09-24T20:58:10.602Z,38.10
2017-09-24T21:00:38.102Z,37.42
2017-09-24T21:03:07.754Z,39.03
2017-09-24T21:05:35.285Z,36.47
2017-09-24T21:08:02.766Z,35.53
2017-09-24T21:10:30.239Z,35.63
2017-09-24T21:12:57.738Z,34.53
2017-09-24T21:15:25.241Z,39.28
2017-09-24T21:17:58.662Z,38.58
2017-09-24T21:20:26.315Z,35.00
2017-09-24T21:22:53.854Z,36.25
2017-09-24T21:25:22.099Z,33.97
2017-09-24T21:27:49.583Z,34.65
2017-09-24T21:30:17.733Z,33.50
2017-09-24T21:32:45.218Z,32.33
2017-09-24T21:35:12.682Z,33.65
2017-09-24T21:37:40.207Z,32.10
2017-09-24T21:40:07.849Z,33.88
2017-09-24T21:42:35.612Z,38.15
2017-09-24T21:45:03.118Z,34.38
2017-09-24T21:47:30.619Z,34.78
2017-09-24T21:49:58.120Z,33.40
2017-09-24T21:52:25.601Z,33.78
2017-09-24T21:54:53.129Z,35.40
2017-09-24T21:57:20.600Z,32.97
2017-09-24T21:59:48.827Z,34.90
2017-09-24T22:02:16.546Z,33.47
2017-09-24T22:04:44.427Z,32.95
2017-09-24T22:07:11.878Z,34.40
2017-09-24T22:09:39.339Z,33.85
2017-09-24T22:12:06.812Z,33.25
2017-09-24T22:14:34.749Z,35.28
2017-09-24T22:17:02.223Z,33.72
2017-09-24T22:19:29.683Z,34.75
2017-09-24T22:21:57.127Z,38.13
2017-09-24T22:24:25.370Z,36.63
2017-09-24T22:26:52.978Z,37.25
2017-09-24T22:29:20.492Z,34.92
2017-09-24T22:31:47.979Z,34.10
2017-09-24T22:34:15.438Z,37.47
2017-09-24T22:36:42.902Z,37.13
2017-09-24T22:39:10.356Z,40.00
2017-09-24T22:41:37.818Z,38.90
2017-09-24T22:44:05.303Z,37.00
2017-09-24T22:46:32.794Z,40.55
2017-09-24T22:49:00.282Z,40.35
2017-09-24T22:51:27.791Z,47.70
2017-09-24T22:53:55.258Z,46.95
2017-09-24T22:56:22.746Z,48.42
2017-09-24T22:58:50.266Z,49.40
2017-09-24T23:01:17.736Z,54.40
2017-09-24T23:03:45.227Z,51.28
2017-09-24T23:06:12.691Z,50.45
2017-09-24T23:08:40.172Z,57.67
2017-09-24T23:11:07.647Z,52.92
2017-09-24T23:13:35.118Z,50.95
2017-09-24T23:16:02.591Z,51.47
2017-09-24T23:18:30.834Z,49.22
2017-09-24T23:20:58.319Z,51.50
2017-09-24T23:23:26.572Z,54.80
2017-09-24T23:25:54.032Z,52.45
2017-09-24T23:28:21.505Z,50.70
2017-09-24T23:30:48.962Z,53.10
2017-09-24T23:33:16.443Z,52.28
2017-09-24T23:35:43.915Z,55.25
2017-09-24T23:38:11.385Z,54.42
2017-09-24T23:40:38.847Z,52.97
2017-09-24T23:43:06.298Z,60.42
2017-09-24T23:45:33.757Z,51.65
2017-09-24T23:48:01.216Z,59.67
2017-09-24T23:50:28.664Z,60.00
2017-09-24T23:52:56.111Z,54.50
2017-09-24T23:55:23.575Z,56.55
2017-09-24T23:57:51.030Z,54.92
